Nanjing Lukou Airport
ZSNJ : now visible

Airfield :











YOU CAN JOIN US ON...

 
LOGIN :

Register | Disclaimer

   EN    FR    IT 

 









Legend :    VFR   Marginal VFR   IFR   Intensive IFR   Very Intensive IFR
Visi :
Ceiling :
>= 8 km
>= 3000ft
5 to 8 km
1000 to 3000 ft
1500m to 5 km
500 to 1000 ft
800 to 1500m
200 to 500 ft
< 800m
< 200 ft
Symbols :   Thunderstorms  Fog  Heavy snow  Heavy precipitations  Wind > 20 kt






- Airport Elevation : 49 ft
- IATA code : NKG


ZSNJ - Nanjing Lukou

CURRENT METAR :
  • 201400Z 07004MPS CAVOK 22/18 Q1013 NOSIG

EXPIRED METARs :
  • 201300Z 06003MPS CAVOK 23/18 Q1013 NOSIG
  • 201200Z 07004MPS CAVOK 24/19 Q1012 NOSIG
  • 201100Z 06003MPS CAVOK 25/18 Q1012 NOSIG
  • 201000Z 07005MPS CAVOK 27/18 Q1011 NOSIG

TAF TAF ZSNJ
Valid from the 20 at 12:00 until the 21 at 12:00 UTC


200902Z 2012/2112 09004MPS 3000 HZ NSC TX30/2107Z TN20/2021Z
ZSHA FIR / Asia



MET'MAP, your aeronautical weather chart ! - Copyright ORBIFLY December 2007 - Disclaimer

ORBIFLY MET'MAP TEAM :

Programming & Development : Alexandra Zaïnal
Original concept : Baudouin d'Aumeries
Technical & hardware support : Manuel Goepfert
Assistance : Marc-Olivier Méhu




SOURCES & CREDITS :

   NOAA       Earth
Advisory